Time;durP1;ratioP1;P1;durP2;ratioP2;P2;SDS_P1;SDS_P2;PMS_P1;PMS_P2;Temp;Humidity;BMP_temperature;BMP_pressure;BME280_temperature;BME280_humidity;BME280_pressure;Samples;Min_cycle;Max_cycle;Signal;HPM_P1;HPM_P2
2022/05/26 00:04:08;;;;;;;6.05;2.42;;;15.00;99.90;;;;;;20696772;28;20073;-41
2022/05/26 00:14:11;;;;;;;6.30;1.98;;;14.90;99.90;;;;;;20705538;28;20056;-41
2022/05/26 00:24:12;;;;;;;6.40;2.72;;;14.90;99.90;;;;;;20686151;28;20037;-41
2022/05/26 00:34:13;;;;;;;4.93;2.13;;;15.00;99.90;;;;;;20694376;28;20052;-41
2022/05/26 00:44:15;;;;;;;6.07;2.00;;;15.00;99.90;;;;;;20687745;28;20033;-41
2022/05/26 00:54:23;;;;;;;4.35;2.17;;;15.00;99.90;;;;;;20688419;28;20406;-41
2022/05/26 01:04:28;;;;;;;8.05;1.83;;;15.10;99.90;;;;;;20694385;28;21518;-41
2022/05/26 01:14:38;;;;;;;13.43;3.42;;;15.00;99.90;;;;;;20676582;28;20197;-43
2022/05/26 01:25:16;;;;;;;12.57;2.10;;;15.10;99.90;;;;;;20697423;28;20045;-41
2022/05/26 01:35:22;;;;;;;4.80;1.77;;;15.10;99.90;;;;;;20701273;28;20665;-42
2022/05/26 01:45:50;;;;;;;6.70;3.67;;;15.10;99.90;;;;;;20688423;28;20045;-41
2022/05/26 01:56:02;;;;;;;4.20;1.67;;;15.00;99.90;;;;;;20698931;28;20131;-41
2022/05/26 02:06:15;;;;;;;7.38;2.00;;;15.10;99.90;;;;;;20701970;28;20405;-41
2022/05/26 02:16:40;;;;;;;18.70;2.88;;;15.00;99.90;;;;;;20697011;28;20041;-41
2022/05/26 02:26:41;;;;;;;3.55;1.13;;;15.00;99.90;;;;;;20707096;28;20176;-41
2022/05/26 02:36:43;;;;;;;4.70;2.10;;;14.90;99.90;;;;;;20696925;28;20060;-41
2022/05/26 02:47:15;;;;;;;4.90;1.15;;;15.00;99.90;;;;;;20712043;28;20202;-41
2022/05/26 02:57:24;;;;;;;10.85;4.00;;;14.90;99.90;;;;;;20696897;28;20544;-41
2022/05/26 03:07:30;;;;;;;10.27;1.88;;;14.80;99.90;;;;;;20694172;28;20571;-41
2022/05/26 03:17:32;;;;;;;7.13;2.05;;;14.80;99.90;;;;;;20690442;28;20056;-41
2022/05/26 03:27:34;;;;;;;1.92;0.82;;;14.60;99.90;;;;;;20688278;28;20037;-41
2022/05/26 03:47:55;;;;;;;1.70;0.60;;;14.50;99.90;;;;;;20704984;28;20061;-41
2022/05/26 03:57:59;;;;;;;1.85;0.65;;;14.40;99.90;;;;;;20709740;28;20053;-41
2022/05/26 04:08:00;;;;;;;1.38;0.85;;;14.20;99.90;;;;;;20692034;28;20030;-41
2022/05/26 04:18:01;;;;;;;2.25;0.90;;;14.10;99.90;;;;;;20710362;28;20049;-42
2022/05/26 04:28:03;;;;;;;2.40;0.98;;;14.10;99.90;;;;;;20660679;28;20522;-41
2022/05/26 04:38:04;;;;;;;4.25;0.70;;;14.20;99.90;;;;;;20706077;28;20045;-41
2022/05/26 04:48:05;;;;;;;1.52;0.73;;;14.20;99.90;;;;;;20712753;28;20068;-41
2022/05/26 04:58:07;;;;;;;4.30;0.77;;;14.20;99.90;;;;;;20673518;28;20066;-41
2022/05/26 05:08:08;;;;;;;1.95;1.00;;;14.30;99.90;;;;;;20707504;28;20041;-41
2022/05/26 05:18:09;;;;;;;2.83;1.00;;;14.30;99.90;;;;;;20729896;28;20049;-41
2022/05/26 05:28:16;;;;;;;2.10;0.80;;;14.50;99.90;;;;;;20728685;28;20056;-41
2022/05/26 05:38:17;;;;;;;4.07;0.90;;;14.70;99.90;;;;;;20717317;28;20042;-41
2022/05/26 05:48:20;;;;;;;1.90;0.80;;;14.70;99.90;;;;;;20721278;28;20103;-41
2022/05/26 05:58:21;;;;;;;2.70;1.15;;;14.80;99.90;;;;;;20718515;28;20549;-41
2022/05/26 06:08:22;;;;;;;1.48;0.52;;;15.20;99.90;;;;;;20712257;28;20388;-41
2022/05/26 06:18:23;;;;;;;5.40;2.28;;;15.40;99.90;;;;;;20719891;28;20053;-41
2022/05/26 06:38:45;;;;;;;2.13;1.08;;;15.90;99.90;;;;;;20724535;28;20045;-41
2022/05/26 06:48:47;;;;;;;2.60;1.02;;;15.80;99.90;;;;;;20684115;28;20049;-41
2022/05/26 06:58:48;;;;;;;1.45;0.50;;;16.10;99.90;;;;;;20731689;28;20045;-41
2022/05/26 07:08:50;;;;;;;2.40;0.70;;;16.30;99.90;;;;;;20673781;28;20134;-41
2022/05/26 07:18:53;;;;;;;1.05;0.43;;;16.50;99.90;;;;;;20701932;28;20038;-41
2022/05/26 07:28:55;;;;;;;1.25;0.43;;;16.70;99.90;;;;;;20690480;28;20041;-41
2022/05/26 07:49:16;;;;;;;2.22;0.90;;;16.90;99.90;;;;;;20687459;28;20045;-41
2022/05/26 07:59:17;;;;;;;1.73;0.75;;;16.90;99.90;;;;;;20709275;28;20089;-41
2022/05/26 08:09:21;;;;;;;1.95;0.73;;;16.90;99.90;;;;;;20712743;28;20501;-41
2022/05/26 08:19:22;;;;;;;3.78;0.70;;;17.00;99.90;;;;;;20679167;28;21605;-41
2022/05/26 08:29:23;;;;;;;1.55;0.60;;;17.20;99.90;;;;;;20685893;28;20380;-41
2022/05/26 08:39:24;;;;;;;1.77;0.85;;;17.40;99.90;;;;;;20680543;28;20049;-41
2022/05/26 08:49:48;;;;;;;1.33;0.45;;;17.50;99.90;;;;;;20695298;28;21173;-41
2022/05/26 08:59:49;;;;;;;1.83;0.65;;;17.80;99.90;;;;;;20687445;28;20053;-41
2022/05/26 09:20:41;;;;;;;1.30;0.75;;;18.10;99.90;;;;;;20702721;28;21575;-40
2022/05/26 09:30:42;;;;;;;2.17;0.73;;;18.30;99.90;;;;;;20695087;28;20238;-40
2022/05/26 09:40:48;;;;;;;1.30;0.50;;;18.10;99.90;;;;;;20671425;28;20057;-41
2022/05/26 09:50:53;;;;;;;10.10;2.08;;;18.20;99.90;;;;;;20736942;28;20050;-41
2022/05/26 10:00:58;;;;;;;1.30;0.63;;;18.20;99.90;;;;;;20768552;28;20052;-41
2022/05/26 10:11:11;;;;;;;3.88;0.57;;;17.80;99.90;;;;;;20748359;28;20501;-40
2022/05/26 10:21:51;;;;;;;2.60;0.60;;;18.50;99.90;;;;;;20748386;28;22314;-41
2022/05/26 10:31:56;;;;;;;1.15;0.40;;;18.40;99.90;;;;;;20741821;28;21565;-41
2022/05/26 10:42:15;;;;;;;1.25;0.63;;;18.30;99.90;;;;;;20748487;28;20077;-40
2022/05/26 10:52:29;;;;;;;1.73;1.23;;;18.60;99.90;;;;;;20748202;28;20943;-41
2022/05/26 11:03:09;;;;;;;2.03;0.60;;;18.90;99.90;;;;;;20736890;28;20050;-41
2022/05/26 11:13:34;;;;;;;0.75;0.50;;;19.30;99.90;;;;;;20740626;28;20041;-40
2022/05/26 11:23:38;;;;;;;1.48;0.47;;;19.50;99.90;;;;;;20715546;28;21458;-40
2022/05/26 11:45:13;;;;;;;1.00;0.20;;;20.30;99.90;;;;;;20699165;28;20461;-40
2022/05/26 11:55:26;;;;;;;3.35;0.75;;;20.30;99.90;;;;;;20560969;28;20248;-39
2022/05/26 12:05:28;;;;;;;1.05;0.30;;;19.80;99.90;;;;;;20694778;28;20092;-40
2022/05/26 12:15:29;;;;;;;2.15;0.43;;;19.70;99.90;;;;;;20696918;28;20052;-40
2022/05/26 12:25:34;;;;;;;1.40;0.30;;;20.00;99.90;;;;;;20684995;28;20057;-40
2022/05/26 12:35:38;;;;;;;0.30;0.20;;;19.70;99.90;;;;;;20709262;28;20048;-40
2022/05/26 12:45:41;;;;;;;0.98;0.28;;;19.60;99.90;;;;;;20724440;28;20901;-40
2022/05/26 12:56:05;;;;;;;2.20;0.60;;;19.60;99.90;;;;;;20699953;28;20057;-41
2022/05/26 13:06:09;;;;;;;1.05;0.50;;;19.50;99.90;;;;;;20709773;28;20048;-40
2022/05/26 13:16:32;;;;;;;0.73;0.30;;;19.10;99.90;;;;;;20732583;28;20042;-41
2022/05/26 13:26:33;;;;;;;3.72;0.32;;;18.90;99.90;;;;;;20710118;28;21528;-41
2022/05/26 13:36:39;;;;;;;1.35;0.25;;;19.60;99.90;;;;;;20724398;28;20049;-40
2022/05/26 13:46:43;;;;;;;0.88;0.70;;;19.90;99.90;;;;;;20720128;28;20045;-41
2022/05/26 13:56:46;;;;;;;0.85;0.50;;;20.10;99.90;;;;;;20566439;28;20057;-41
2022/05/26 14:06:47;;;;;;;1.02;0.73;;;19.80;99.90;;;;;;20639085;28;20042;-40
2022/05/26 14:16:49;;;;;;;3.28;1.05;;;19.20;99.90;;;;;;20620963;28;20047;-40
2022/05/26 14:27:07;;;;;;;0.90;0.57;;;18.80;99.90;;;;;;20643661;28;20053;-41
2022/05/26 14:37:13;;;;;;;1.05;0.50;;;18.80;99.90;;;;;;20622456;28;20328;-41
2022/05/26 14:47:15;;;;;;;1.25;0.47;;;18.80;99.90;;;;;;20635492;28;20061;-41
2022/05/26 14:57:16;;;;;;;1.38;0.75;;;18.80;99.90;;;;;;20694938;28;20046;-42
2022/05/26 15:07:20;;;;;;;1.60;0.45;;;18.90;99.90;;;;;;20725148;28;20053;-42
2022/05/26 15:17:23;;;;;;;7.53;1.00;;;19.00;99.90;;;;;;20724796;28;20277;-41
2022/05/26 15:27:26;;;;;;;2.35;1.10;;;19.50;99.90;;;;;;20723950;28;20038;-40
2022/05/26 15:37:29;;;;;;;1.42;0.45;;;19.50;99.90;;;;;;20712477;28;20041;-41
2022/05/26 15:47:37;;;;;;;2.35;1.02;;;19.50;99.90;;;;;;20725431;28;20042;-41
2022/05/26 15:57:40;;;;;;;1.05;0.30;;;19.30;99.90;;;;;;20736754;28;20056;-40
2022/05/26 16:07:42;;;;;;;3.30;0.57;;;18.90;99.90;;;;;;20723893;28;20041;-41
2022/05/26 16:17:43;;;;;;;2.25;0.70;;;18.80;99.90;;;;;;20721035;28;20094;-42
2022/05/26 16:27:44;;;;;;;1.20;0.60;;;18.70;99.90;;;;;;20702195;28;20034;-43
2022/05/26 16:37:47;;;;;;;2.67;0.40;;;18.80;99.90;;;;;;20692870;28;20080;-42
2022/05/26 16:47:48;;;;;;;1.20;0.52;;;18.70;99.90;;;;;;20697334;28;20517;-42
2022/05/26 16:57:49;;;;;;;1.48;0.40;;;18.50;99.90;;;;;;20700534;28;20057;-41
2022/05/26 17:07:50;;;;;;;2.80;1.42;;;18.20;99.90;;;;;;20719789;28;20053;-41
2022/05/26 17:28:11;;;;;;;2.33;0.50;;;18.40;99.90;;;;;;20704183;28;21055;-42
2022/05/26 17:38:13;;;;;;;2.08;0.60;;;18.40;99.90;;;;;;20722292;28;20073;-42
2022/05/26 17:48:15;;;;;;;1.25;0.70;;;18.30;99.90;;;;;;20713916;28;20046;-41
2022/05/26 17:58:21;;;;;;;1.45;0.70;;;18.20;99.90;;;;;;20698804;28;20104;-41
2022/05/26 18:08:22;;;;;;;2.47;1.05;;;18.10;99.90;;;;;;20716513;28;20617;-42
2022/05/26 18:18:26;;;;;;;1.48;0.85;;;18.00;99.90;;;;;;20710491;28;20510;-41
2022/05/26 18:28:28;;;;;;;2.35;1.48;;;17.80;99.90;;;;;;20709842;28;20029;-42
2022/05/26 18:38:31;;;;;;;1.55;0.70;;;17.70;99.90;;;;;;20716127;28;20060;-42
2022/05/26 18:48:36;;;;;;;3.13;0.82;;;17.70;99.90;;;;;;20709624;28;20061;-41
2022/05/26 18:58:37;;;;;;;3.85;1.02;;;17.60;99.90;;;;;;20709094;28;20096;-41
2022/05/26 19:08:39;;;;;;;2.30;0.80;;;17.50;99.90;;;;;;20703183;28;20625;-41
2022/05/26 19:18:41;;;;;;;2.88;1.02;;;17.40;99.90;;;;;;20710266;28;20590;-41
2022/05/26 19:28:47;;;;;;;1.48;0.68;;;17.30;99.90;;;;;;20706247;28;20497;-41
2022/05/26 19:38:48;;;;;;;0.93;0.50;;;17.30;99.90;;;;;;20715713;28;20045;-41
2022/05/26 19:48:49;;;;;;;2.40;1.00;;;17.10;99.90;;;;;;20708949;28;20045;-41
2022/05/26 19:58:53;;;;;;;1.67;0.55;;;17.20;99.90;;;;;;20700896;28;20519;-41
2022/05/26 20:08:54;;;;;;;5.85;0.98;;;17.10;99.90;;;;;;20706795;28;20045;-41
2022/05/26 20:18:56;;;;;;;1.67;0.65;;;17.10;99.90;;;;;;20711445;28;20348;-41
2022/05/26 20:39:21;;;;;;;1.83;0.70;;;16.90;99.90;;;;;;20696763;28;20145;-42
2022/05/26 20:49:35;;;;;;;1.25;0.50;;;16.90;99.90;;;;;;20710070;28;20041;-41
2022/05/26 20:59:37;;;;;;;2.92;0.50;;;16.90;99.90;;;;;;20711569;28;20049;-41
2022/05/26 21:09:39;;;;;;;6.03;1.08;;;16.90;99.90;;;;;;20705474;28;20041;-42
2022/05/26 21:19:41;;;;;;;7.97;0.70;;;16.90;99.90;;;;;;20714761;28;20057;-41
2022/05/26 21:29:42;;;;;;;4.88;0.40;;;16.90;99.90;;;;;;20725525;28;20060;-42
2022/05/26 21:39:43;;;;;;;1.75;0.68;;;16.80;99.90;;;;;;20714618;28;20433;-41
2022/05/26 21:49:45;;;;;;;3.25;1.25;;;16.80;99.90;;;;;;20703293;28;20052;-42
2022/05/26 21:59:47;;;;;;;2.92;0.85;;;16.80;99.90;;;;;;20733363;28;20073;-41
2022/05/26 22:20:10;;;;;;;1.88;0.95;;;16.80;99.90;;;;;;20739955;28;20335;-41
2022/05/26 22:30:21;;;;;;;3.72;1.50;;;16.80;99.90;;;;;;20726773;28;20050;-41
2022/05/26 22:40:25;;;;;;;2.67;1.52;;;16.90;99.90;;;;;;20733849;28;21496;-41
2022/05/26 22:50:27;;;;;;;2.20;0.70;;;16.90;99.90;;;;;;20727866;28;20042;-42
2022/05/26 23:00:30;;;;;;;4.07;1.13;;;16.90;99.90;;;;;;20712746;28;20054;-41
2022/05/26 23:10:41;;;;;;;2.97;0.80;;;16.90;99.90;;;;;;20709212;28;20088;-41
2022/05/26 23:20:42;;;;;;;2.58;0.95;;;16.70;99.90;;;;;;20716242;28;20049;-41
2022/05/26 23:30:43;;;;;;;3.83;1.48;;;16.60;99.90;;;;;;20711731;28;20063;-41
2022/05/26 23:51:04;;;;;;;1.20;0.43;;;16.50;99.90;;;;;;20707185;28;20049;-42
